Terminal Aerodrome Forecast
Issued by NWS

Home | Current Version | Previous Version | Graphics & Text | Print | Product List | Glossary On
Versions: 1 2 3 4 5 6 7 8 9 10 11 12 13 14 15 16 17 18
000
FTUS43 KFGF 040549 AAA
TAFBJI
TAF AMD
KBJI 040549Z 0406/0506 15009KT P6SM OVC010
      TEMPO 0406/0407 -SN
     FM041200 15009KT 3SM -SN OVC003
     FM041600 17008KT P6SM OVC008
     FM050200 24006KT P6SM BKN010=

USA.gov is the U.S. government's official web portal to all federal, state and local government web resources and services.